Time;durP1;ratioP1;P1;durP2;ratioP2;P2;SDS_P1;SDS_P2;PMS_P1;PMS_P2;Temp;Humidity;BMP_temperature;BMP_pressure;BME280_temperature;BME280_humidity;BME280_pressure;Samples;Min_cycle;Max_cycle;Signal;HPM_P1;HPM_P2
2022/04/20 00:01:23;;;;;;;5.05;2.03;;;9.40;99.90;;;;;;4953788;29;20503;-80
2022/04/20 00:03:49;;;;;;;3.00;1.83;;;9.50;99.90;;;;;;4954828;28;20066;-80
2022/04/20 00:06:15;;;;;;;4.00;2.03;;;9.40;99.90;;;;;;4955018;29;20019;-80
2022/04/20 00:08:41;;;;;;;6.88;2.38;;;9.40;99.90;;;;;;4954572;28;20031;-79
2022/04/20 00:11:08;;;;;;;2.50;1.50;;;9.40;99.90;;;;;;4953408;28;20123;-81
2022/04/20 00:13:36;;;;;;;3.90;1.70;;;9.40;99.90;;;;;;4954936;28;20031;-80
2022/04/20 00:16:02;;;;;;;2.55;1.73;;;9.40;99.90;;;;;;4954267;28;20031;-80
2022/04/20 00:18:28;;;;;;;3.40;1.83;;;9.40;99.90;;;;;;4968469;28;20089;-80
2022/04/20 00:20:54;;;;;;;3.00;1.45;;;9.40;99.90;;;;;;4959048;28;20106;-80
2022/04/20 00:23:19;;;;;;;4.35;1.35;;;9.30;99.90;;;;;;4962248;28;20035;-80
2022/04/20 00:25:45;;;;;;;3.10;1.40;;;9.30;99.90;;;;;;4973874;28;20027;-80
2022/04/20 00:28:11;;;;;;;2.95;1.73;;;9.50;99.90;;;;;;4972164;28;20047;-80
2022/04/20 00:30:36;;;;;;;2.83;1.60;;;9.40;99.90;;;;;;4974081;28;20051;-81
2022/04/20 00:33:02;;;;;;;3.25;1.23;;;9.40;99.90;;;;;;4973937;28;20031;-80
2022/04/20 00:35:28;;;;;;;3.63;1.42;;;9.40;99.90;;;;;;4974092;28;20053;-80
2022/04/20 00:37:54;;;;;;;2.22;1.20;;;9.40;99.90;;;;;;4973198;28;20027;-80
2022/04/20 00:40:20;;;;;;;1.40;1.00;;;9.30;99.90;;;;;;4963377;28;20042;-81
2022/04/20 00:42:47;;;;;;;1.33;0.90;;;9.30;99.90;;;;;;4954602;28;20027;-80
2022/04/20 00:45:13;;;;;;;1.45;1.05;;;9.30;99.90;;;;;;4954189;29;20032;-80
2022/04/20 00:47:42;;;;;;;2.00;1.20;;;9.30;99.90;;;;;;4957064;28;20399;-80
2022/04/20 00:50:09;;;;;;;1.70;0.88;;;9.30;99.90;;;;;;4958394;28;20023;-80
2022/04/20 00:52:35;;;;;;;1.10;0.80;;;9.30;99.90;;;;;;4957780;28;20090;-80
2022/04/20 00:55:00;;;;;;;1.15;0.80;;;9.30;99.90;;;;;;4956935;28;20027;-80
2022/04/20 00:57:26;;;;;;;1.65;0.80;;;9.10;99.90;;;;;;4958363;28;20102;-81
2022/04/20 00:59:57;;;;;;;0.70;0.60;;;9.10;99.90;;;;;;4958337;28;20073;-80
2022/04/20 01:02:23;;;;;;;0.85;0.73;;;9.10;99.90;;;;;;4958313;28;20445;-80
2022/04/20 01:04:49;;;;;;;1.27;0.80;;;9.20;99.90;;;;;;4958039;28;20058;-79
2022/04/20 01:07:16;;;;;;;2.85;1.13;;;9.20;99.90;;;;;;4965045;28;20035;-80
2022/04/20 01:09:43;;;;;;;5.53;0.70;;;9.20;99.90;;;;;;4977506;28;20023;-80
2022/04/20 01:12:11;;;;;;;0.80;0.60;;;9.20;99.90;;;;;;4977387;28;20105;-80
2022/04/20 01:14:36;;;;;;;1.35;0.70;;;9.20;99.90;;;;;;4976092;28;20113;-80
2022/04/20 01:17:03;;;;;;;1.73;0.75;;;9.20;99.90;;;;;;4977406;28;20109;-80
2022/04/20 01:19:33;;;;;;;1.20;0.77;;;9.10;99.90;;;;;;4975898;28;20022;-81
2022/04/20 01:22:00;;;;;;;1.17;0.70;;;9.20;99.90;;;;;;4957086;28;20038;-80
2022/04/20 01:24:25;;;;;;;4.80;0.85;;;9.20;99.90;;;;;;4957799;28;20023;-80
2022/04/20 01:26:51;;;;;;;3.33;1.10;;;9.20;99.90;;;;;;4957534;28;20039;-80
2022/04/20 01:29:18;;;;;;;1.05;0.77;;;9.10;99.90;;;;;;4957391;28;20047;-80
2022/04/20 01:31:44;;;;;;;1.30;0.80;;;9.20;99.90;;;;;;4957888;28;20047;-80
2022/04/20 01:34:09;;;;;;;1.63;0.60;;;9.10;99.90;;;;;;4957887;28;20118;-80
2022/04/20 01:36:35;;;;;;;3.15;0.80;;;9.00;99.90;;;;;;4957204;28;20023;-81
2022/04/20 01:39:01;;;;;;;2.03;0.80;;;9.10;99.90;;;;;;4957614;28;20034;-80
2022/04/20 01:41:26;;;;;;;0.98;0.60;;;9.10;99.90;;;;;;4972927;28;20110;-80
2022/04/20 01:43:52;;;;;;;1.35;0.85;;;9.10;99.90;;;;;;4976918;28;20022;-80
2022/04/20 01:46:17;;;;;;;3.50;0.90;;;9.10;99.90;;;;;;4976908;28;20386;-80
2022/04/20 01:48:43;;;;;;;1.10;0.80;;;9.10;99.90;;;;;;4976722;28;20033;-79
2022/04/20 01:53:53;;;;;;;1.30;0.68;;;9.10;99.90;;;;;;4957775;28;20086;-80
2022/04/20 01:56:19;;;;;;;1.13;0.77;;;9.10;99.90;;;;;;4957017;28;20031;-80
2022/04/20 01:58:45;;;;;;;1.30;0.77;;;9.00;99.90;;;;;;4957229;28;20563;-80
2022/04/20 02:03:54;;;;;;;6.28;0.70;;;8.90;99.90;;;;;;4957394;29;20027;-80
2022/04/20 02:06:20;;;;;;;0.88;0.65;;;9.00;99.90;;;;;;4956755;28;20035;-80
2022/04/20 02:08:46;;;;;;;1.08;0.63;;;9.00;99.90;;;;;;4963406;28;20026;-80
2022/04/20 02:11:11;;;;;;;3.38;0.70;;;8.90;99.90;;;;;;4975113;28;20450;-81
2022/04/20 02:13:37;;;;;;;2.20;0.80;;;8.90;99.90;;;;;;4975069;28;20479;-80
2022/04/20 02:16:03;;;;;;;1.75;0.60;;;9.00;99.90;;;;;;4976466;28;20082;-80
2022/04/20 02:18:28;;;;;;;0.82;0.50;;;8.90;99.90;;;;;;4976148;28;20030;-80
2022/04/20 02:20:54;;;;;;;0.90;0.70;;;9.00;99.90;;;;;;4974662;28;20118;-80
2022/04/20 02:23:20;;;;;;;7.13;0.57;;;9.00;99.90;;;;;;4976128;28;20019;-80
2022/04/20 02:25:45;;;;;;;2.58;0.70;;;9.00;99.90;;;;;;4976203;28;20050;-80
2022/04/20 02:28:11;;;;;;;1.15;0.68;;;8.90;99.90;;;;;;4968636;28;20048;-81
2022/04/20 02:30:36;;;;;;;4.00;0.70;;;8.90;99.90;;;;;;4955230;28;20027;-80
2022/04/20 02:33:02;;;;;;;2.42;0.80;;;8.90;99.90;;;;;;4975475;28;20174;-80
2022/04/20 02:35:29;;;;;;;3.33;0.80;;;8.90;99.90;;;;;;4975334;28;20031;-80
2022/04/20 02:37:55;;;;;;;2.03;0.60;;;9.00;99.90;;;;;;4975870;28;20027;-80
2022/04/20 02:40:21;;;;;;;0.60;0.50;;;9.00;99.90;;;;;;4975686;28;20070;-80
2022/04/20 02:42:47;;;;;;;2.53;0.60;;;8.90;99.90;;;;;;4975778;28;20033;-81
2022/04/20 02:45:13;;;;;;;1.45;0.70;;;8.80;99.90;;;;;;4963102;28;20043;-80
2022/04/20 02:47:38;;;;;;;4.10;0.65;;;8.90;99.90;;;;;;4970788;28;20027;-80
2022/04/20 02:50:04;;;;;;;4.22;0.85;;;8.80;99.90;;;;;;4956143;28;20439;-80
2022/04/20 02:52:30;;;;;;;10.95;0.90;;;8.90;99.90;;;;;;4956113;28;20440;-81
2022/04/20 02:54:56;;;;;;;1.45;0.98;;;8.90;99.90;;;;;;4955028;28;20031;-80
2022/04/20 02:57:21;;;;;;;1.15;0.60;;;8.90;99.90;;;;;;4954974;28;20039;-80
2022/04/20 02:59:47;;;;;;;3.45;0.63;;;8.90;99.90;;;;;;4955776;28;20407;-80
2022/04/20 03:02:13;;;;;;;4.90;0.95;;;8.90;99.90;;;;;;4956207;28;20110;-81
2022/04/20 03:04:38;;;;;;;1.05;0.65;;;8.90;99.90;;;;;;4955436;28;20038;-80
2022/04/20 03:07:04;;;;;;;1.63;0.80;;;8.80;99.90;;;;;;4955910;28;20027;-80
2022/04/20 03:09:30;;;;;;;8.23;1.83;;;8.80;99.90;;;;;;4953946;28;20027;-80
2022/04/20 03:11:55;;;;;;;2.33;0.70;;;8.80;99.90;;;;;;4956824;28;20024;-80
2022/04/20 03:14:21;;;;;;;1.33;0.70;;;8.80;99.90;;;;;;4956173;28;20222;-80
2022/04/20 03:16:47;;;;;;;4.00;0.70;;;8.80;99.90;;;;;;4973945;28;20031;-80
2022/04/20 03:19:12;;;;;;;1.25;0.75;;;8.80;99.90;;;;;;4974850;28;20027;-80
2022/04/20 03:21:38;;;;;;;1.27;0.70;;;8.80;99.90;;;;;;4974178;28;20498;-80
2022/04/20 03:24:05;;;;;;;1.80;0.70;;;8.80;99.90;;;;;;4973755;28;20027;-80
2022/04/20 03:26:30;;;;;;;4.43;0.80;;;8.80;99.90;;;;;;4974748;28;20517;-81
2022/04/20 03:28:56;;;;;;;2.88;0.77;;;8.80;99.90;;;;;;4968286;28;20047;-80
2022/04/20 03:31:22;;;;;;;1.30;0.70;;;8.80;99.90;;;;;;4955892;28;20111;-80
2022/04/20 03:33:47;;;;;;;3.42;0.88;;;8.80;99.90;;;;;;4955162;28;20135;-78
2022/04/20 03:36:13;;;;;;;2.72;1.00;;;8.80;99.90;;;;;;4955820;28;20386;-80
2022/04/20 03:38:38;;;;;;;1.48;0.60;;;8.80;99.90;;;;;;4953865;28;20031;-79
2022/04/20 03:41:05;;;;;;;2.38;1.00;;;8.80;99.90;;;;;;4955774;28;20045;-80
2022/04/20 03:43:31;;;;;;;1.27;0.70;;;8.80;99.90;;;;;;4955202;28;20042;-79
2022/04/20 03:45:57;;;;;;;4.47;1.00;;;8.80;99.90;;;;;;4954244;28;20059;-80
2022/04/20 03:48:23;;;;;;;2.55;0.95;;;8.80;99.90;;;;;;4954621;28;20055;-80
2022/04/20 03:50:50;;;;;;;1.55;0.80;;;8.80;99.90;;;;;;4954752;28;20023;-80
2022/04/20 03:53:15;;;;;;;4.88;1.00;;;8.80;99.90;;;;;;4953593;28;20442;-79
2022/04/20 03:55:41;;;;;;;1.10;0.80;;;8.80;99.90;;;;;;4953858;28;20107;-80
2022/04/20 03:58:07;;;;;;;1.25;0.70;;;8.80;99.90;;;;;;4955062;28;20023;-80
2022/04/20 04:00:33;;;;;;;2.63;1.05;;;8.80;99.90;;;;;;4954543;28;20038;-80
2022/04/20 04:02:59;;;;;;;0.98;0.65;;;8.80;99.90;;;;;;4954771;28;20039;-80
2022/04/20 04:05:24;;;;;;;14.75;1.75;;;8.80;99.90;;;;;;4954826;28;20520;-80
2022/04/20 04:07:50;;;;;;;1.52;0.80;;;8.80;99.90;;;;;;4954668;28;20502;-80
2022/04/20 04:10:16;;;;;;;1.30;0.75;;;8.90;99.90;;;;;;4954998;28;20026;-80
2022/04/20 04:12:41;;;;;;;0.90;0.70;;;8.80;99.90;;;;;;4954659;28;20439;-84
2022/04/20 04:15:07;;;;;;;1.40;0.70;;;8.80;99.90;;;;;;4954982;28;20027;-82
2022/04/20 04:17:34;;;;;;;2.45;0.80;;;8.80;99.90;;;;;;4954380;28;20094;-84
2022/04/20 04:20:00;;;;;;;1.27;0.65;;;8.80;99.90;;;;;;4954710;28;20106;-84
2022/04/20 04:22:26;;;;;;;2.38;0.70;;;8.80;99.90;;;;;;4953969;28;20083;-82
2022/04/20 04:24:51;;;;;;;3.13;0.80;;;8.80;99.90;;;;;;4953604;29;20049;-83
2022/04/20 04:27:17;;;;;;;0.82;0.60;;;8.80;99.90;;;;;;4953317;28;20027;-81
2022/04/20 04:29:43;;;;;;;2.28;1.10;;;8.80;99.90;;;;;;4953963;28;20506;-80
2022/04/20 04:32:08;;;;;;;6.43;0.90;;;8.80;99.90;;;;;;4953111;28;20494;-81
2022/04/20 04:34:34;;;;;;;1.10;0.70;;;8.80;99.90;;;;;;4954572;28;20019;-80
2022/04/20 04:37:00;;;;;;;4.10;1.23;;;8.80;99.90;;;;;;4963729;28;20035;-80
2022/04/20 04:39:29;;;;;;;2.88;1.27;;;8.80;99.90;;;;;;4973854;28;20391;-80
2022/04/20 04:42:02;;;;;;;1.92;0.73;;;8.90;99.90;;;;;;4955983;28;20443;-80
2022/04/20 04:44:28;;;;;;;1.25;0.75;;;8.80;99.90;;;;;;4953014;28;20034;-80
2022/04/20 04:49:39;;;;;;;4.25;0.80;;;8.90;99.90;;;;;;4954807;29;20055;-80
2022/04/20 04:52:11;;;;;;;2.13;0.60;;;8.90;99.90;;;;;;4969289;28;20086;-80
2022/04/20 04:54:42;;;;;;;1.42;0.65;;;8.80;99.90;;;;;;4954618;28;20472;-80
2022/04/20 04:57:09;;;;;;;1.13;0.50;;;8.80;99.90;;;;;;4954321;28;20031;-80
2022/04/20 04:59:42;;;;;;;1.42;0.77;;;8.80;99.90;;;;;;4954119;28;20030;-80
2022/04/20 05:02:09;;;;;;;0.70;0.60;;;8.80;99.90;;;;;;4953871;28;20624;-80
2022/04/20 05:04:36;;;;;;;0.82;0.52;;;8.80;99.90;;;;;;4954132;28;20103;-80
2022/04/20 05:07:02;;;;;;;1.25;0.70;;;8.80;99.90;;;;;;4954214;28;20027;-80
2022/04/20 05:09:28;;;;;;;0.82;0.50;;;8.80;99.90;;;;;;4953845;28;20074;-80
2022/04/20 05:11:54;;;;;;;1.13;0.60;;;8.80;99.90;;;;;;4969110;28;20027;-80
2022/04/20 05:14:20;;;;;;;1.55;0.60;;;8.80;99.90;;;;;;4954204;28;20048;-80
2022/04/20 05:16:46;;;;;;;2.65;0.57;;;8.80;99.90;;;;;;4954285;28;20023;-80
2022/04/20 05:19:12;;;;;;;2.03;0.55;;;8.70;99.90;;;;;;4954159;28;20019;-80
2022/04/20 05:21:38;;;;;;;1.05;0.60;;;8.80;99.90;;;;;;4952923;29;20036;-80
2022/04/20 05:24:04;;;;;;;1.38;0.65;;;8.80;99.90;;;;;;4974589;28;20023;-80
2022/04/20 05:26:30;;;;;;;3.63;0.80;;;8.80;99.90;;;;;;4959140;28;20027;-79
2022/04/20 05:28:55;;;;;;;1.55;0.80;;;8.80;99.90;;;;;;4968333;28;20495;-80
2022/04/20 05:31:21;;;;;;;1.40;0.80;;;8.80;99.90;;;;;;4952996;28;20278;-80
2022/04/20 05:33:47;;;;;;;4.35;0.60;;;8.90;99.90;;;;;;4956485;28;20452;-80
2022/04/20 05:36:13;;;;;;;1.00;0.70;;;8.80;99.90;;;;;;4957718;29;20050;-80
2022/04/20 05:41:42;;;;;;;2.60;0.70;;;8.90;99.90;;;;;;4957734;29;20047;-80
2022/04/20 05:44:11;;;;;;;4.93;0.70;;;8.90;99.90;;;;;;4957251;28;20064;-80
2022/04/20 05:46:39;;;;;;;1.98;0.70;;;8.90;99.90;;;;;;4957668;29;20027;-80
2022/04/20 05:49:05;;;;;;;1.42;0.80;;;9.00;99.90;;;;;;4956038;28;20087;-80
2022/04/20 05:51:31;;;;;;;2.00;0.60;;;8.90;99.90;;;;;;4956306;29;20027;-80
2022/04/20 05:53:57;;;;;;;4.97;0.80;;;8.90;99.90;;;;;;4957387;28;20015;-79
2022/04/20 05:56:23;;;;;;;4.85;0.70;;;8.90;99.90;;;;;;4964268;28;20427;-80
2022/04/20 05:58:52;;;;;;;0.95;0.60;;;8.90;99.90;;;;;;4976230;28;20095;-80
2022/04/20 06:01:18;;;;;;;0.90;0.70;;;9.00;99.90;;;;;;4975380;28;20022;-80
2022/04/20 06:03:45;;;;;;;2.13;0.60;;;9.00;99.90;;;;;;4976455;28;20057;-80
2022/04/20 06:06:11;;;;;;;1.50;0.60;;;9.00;99.90;;;;;;4975735;28;20364;-80
2022/04/20 06:08:37;;;;;;;0.85;0.70;;;9.00;99.90;;;;;;4956252;28;20031;-79
2022/04/20 06:11:03;;;;;;;1.50;0.70;;;9.00;99.90;;;;;;4956774;28;20029;-80
2022/04/20 06:13:29;;;;;;;1.08;0.65;;;9.10;99.90;;;;;;4957189;28;20078;-80
2022/04/20 06:15:55;;;;;;;2.33;0.57;;;9.10;99.90;;;;;;4956915;28;20051;-80
2022/04/20 06:18:21;;;;;;;0.80;0.60;;;9.10;99.90;;;;;;4956768;28;20110;-80
2022/04/20 06:20:47;;;;;;;0.93;0.50;;;9.10;99.90;;;;;;4957270;28;20434;-80
2022/04/20 06:23:13;;;;;;;1.70;0.60;;;9.20;99.90;;;;;;4956677;29;20110;-80
2022/04/20 06:25:39;;;;;;;3.42;0.70;;;9.10;99.90;;;;;;4956638;28;20364;-80
2022/04/20 06:28:06;;;;;;;1.02;0.40;;;9.20;99.90;;;;;;4956251;28;20047;-80
2022/04/20 06:30:31;;;;;;;1.40;1.17;;;9.00;99.90;;;;;;4956798;28;20078;-80
2022/04/20 06:32:57;;;;;;;0.50;0.50;;;9.10;99.90;;;;;;4956743;28;20496;-80
2022/04/20 06:35:23;;;;;;;1.88;0.60;;;9.20;99.90;;;;;;4955291;28;20023;-80
2022/04/20 06:37:48;;;;;;;1.67;0.70;;;9.10;99.90;;;;;;4956500;28;20031;-81
2022/04/20 06:40:15;;;;;;;0.88;0.52;;;9.10;99.90;;;;;;4956183;28;20027;-80
2022/04/20 06:42:40;;;;;;;1.00;0.60;;;9.10;99.90;;;;;;4956645;28;20031;-80
2022/04/20 06:45:07;;;;;;;1.00;0.55;;;9.10;99.90;;;;;;4955560;28;20085;-81
2022/04/20 06:47:33;;;;;;;0.98;0.50;;;9.10;99.90;;;;;;4954861;29;20035;-80
2022/04/20 06:49:59;;;;;;;3.28;0.82;;;9.10;99.90;;;;;;4956394;28;20015;-80
2022/04/20 07:00:38;;;;;;;3.60;0.85;;;9.10;99.90;;;;;;4955956;29;20034;-80
2022/04/20 07:03:06;;;;;;;1.95;1.02;;;9.10;99.90;;;;;;4956271;28;20106;-80
2022/04/20 07:05:32;;;;;;;0.70;0.60;;;9.10;99.90;;;;;;4959164;28;20035;-81
2022/04/20 07:08:00;;;;;;;1.88;0.77;;;9.20;99.90;;;;;;4967319;28;20035;-80
2022/04/20 07:10:26;;;;;;;2.45;0.90;;;9.20;99.90;;;;;;4955668;28;20019;-80
2022/04/20 07:12:52;;;;;;;1.95;0.68;;;9.20;99.90;;;;;;4955939;28;20036;-80
2022/04/20 07:15:17;;;;;;;1.75;0.90;;;9.20;99.90;;;;;;4955989;28;20027;-80
2022/04/20 07:17:43;;;;;;;4.70;0.90;;;9.30;99.90;;;;;;4955795;28;20038;-80
2022/04/20 07:20:17;;;;;;;1.40;0.70;;;9.30;99.90;;;;;;4955789;28;20062;-80
2022/04/20 07:22:44;;;;;;;1.55;0.63;;;9.30;99.90;;;;;;4955739;28;20027;-80
2022/04/20 07:25:09;;;;;;;1.58;0.90;;;9.30;99.90;;;;;;4971904;28;20035;-83
2022/04/20 07:27:35;;;;;;;1.17;0.73;;;9.20;99.90;;;;;;4968794;28;20050;-80
2022/04/20 07:30:01;;;;;;;2.33;0.98;;;9.20;99.90;;;;;;4962811;28;20050;-81
2022/04/20 07:32:26;;;;;;;2.08;0.77;;;9.40;99.90;;;;;;4955924;28;20166;-81
2022/04/20 07:34:52;;;;;;;2.40;0.73;;;9.40;99.90;;;;;;4975125;28;20136;-88
2022/04/20 07:37:18;;;;;;;2.60;0.80;;;9.20;99.90;;;;;;4974928;28;20097;-83
2022/04/20 07:39:43;;;;;;;1.10;0.73;;;9.20;99.90;;;;;;4974525;28;20031;-80
2022/04/20 07:42:09;;;;;;;3.03;0.90;;;9.20;99.90;;;;;;4974871;28;20053;-77
2022/04/20 07:44:35;;;;;;;1.90;0.90;;;9.30;99.90;;;;;;4970964;28;20019;-83
2022/04/20 07:47:00;;;;;;;2.83;0.88;;;9.30;99.90;;;;;;4955367;28;20032;-81
2022/04/20 07:52:10;;;;;;;2.95;0.82;;;9.40;99.90;;;;;;4959930;28;20065;-82
2022/04/20 07:54:36;;;;;;;2.92;0.68;;;9.40;99.90;;;;;;4965416;28;20051;-82
2022/04/20 07:57:01;;;;;;;1.95;0.98;;;9.30;99.90;;;;;;4965709;28;20029;-81
2022/04/20 07:59:27;;;;;;;2.20;1.25;;;9.30;99.90;;;;;;4965647;28;20019;-82
2022/04/20 08:01:53;;;;;;;1.13;0.77;;;9.40;99.90;;;;;;4974522;28;20082;-82
2022/04/20 08:04:18;;;;;;;2.53;1.10;;;9.50;99.90;;;;;;4974217;28;20029;-82
2022/04/20 08:06:44;;;;;;;2.45;0.85;;;9.50;99.90;;;;;;4974372;28;20022;-81
2022/04/20 08:09:10;;;;;;;2.03;0.93;;;9.40;99.90;;;;;;4972798;28;20521;-82
2022/04/20 08:11:36;;;;;;;1.15;0.70;;;9.50;99.90;;;;;;4974393;28;20058;-82
2022/04/20 08:14:10;;;;;;;1.10;0.80;;;9.50;99.90;;;;;;4974267;28;20110;-81
2022/04/20 08:16:37;;;;;;;0.95;0.68;;;9.60;99.90;;;;;;4973984;28;20031;-82
2022/04/20 08:19:03;;;;;;;1.17;0.80;;;9.60;99.90;;;;;;4966505;28;20450;-81
2022/04/20 08:21:29;;;;;;;2.25;0.80;;;9.60;99.90;;;;;;4954081;28;20500;-82
2022/04/20 08:23:54;;;;;;;3.08;0.90;;;9.80;99.90;;;;;;4954848;28;20066;-81
2022/04/20 08:26:20;;;;;;;3.67;0.85;;;9.70;99.90;;;;;;4954543;29;20039;-81
2022/04/20 08:28:46;;;;;;;2.20;0.80;;;9.70;99.90;;;;;;4953028;28;20046;-81
2022/04/20 08:31:15;;;;;;;1.05;0.85;;;9.60;99.90;;;;;;4954585;28;20038;-81
2022/04/20 08:33:43;;;;;;;1.55;0.80;;;9.70;99.90;;;;;;4954582;28;20019;-81
2022/04/20 08:36:12;;;;;;;1.27;0.80;;;9.90;99.90;;;;;;4953328;29;20442;-82
2022/04/20 08:38:42;;;;;;;1.25;0.70;;;9.70;99.90;;;;;;4961932;28;20030;-81
2022/04/20 08:41:11;;;;;;;3.20;0.60;;;9.70;99.90;;;;;;4968381;28;20040;-81
2022/04/20 08:43:43;;;;;;;1.13;0.73;;;9.70;99.90;;;;;;4972597;28;20039;-84
2022/04/20 08:46:10;;;;;;;4.82;0.80;;;9.80;99.90;;;;;;4972677;28;20475;-80
2022/04/20 08:48:36;;;;;;;0.85;0.60;;;9.90;99.90;;;;;;4965069;28;20689;-81
2022/04/20 08:51:06;;;;;;;2.05;0.70;;;9.90;99.90;;;;;;4953989;28;20086;-79
2022/04/20 08:53:33;;;;;;;1.08;0.80;;;10.00;99.90;;;;;;4954324;28;20495;-80
2022/04/20 08:58:48;;;;;;;2.33;0.88;;;10.00;99.90;;;;;;4953689;28;20039;-81
2022/04/20 09:01:15;;;;;;;1.85;0.80;;;10.20;99.90;;;;;;4955182;28;20487;-85
2022/04/20 09:03:44;;;;;;;1.15;0.57;;;10.20;99.90;;;;;;4968028;28;20060;-82
2022/04/20 09:06:09;;;;;;;2.10;0.82;;;10.20;99.90;;;;;;4965423;28;20106;-82
2022/04/20 09:08:38;;;;;;;2.58;0.85;;;10.20;99.90;;;;;;4963890;28;20110;-82
2022/04/20 09:11:04;;;;;;;2.92;0.95;;;10.40;99.90;;;;;;4964642;28;20131;-82
2022/04/20 09:13:36;;;;;;;3.88;0.90;;;10.50;99.90;;;;;;4965322;28;20043;-82
2022/04/20 09:16:21;;;;;;;1.50;0.70;;;10.50;99.90;;;;;;4972412;28;20030;-82
2022/04/20 09:18:50;;;;;;;1.05;0.63;;;10.40;99.90;;;;;;4960206;28;20035;-82
2022/04/20 09:21:15;;;;;;;1.48;0.90;;;10.50;99.90;;;;;;4957627;28;20031;-84
2022/04/20 09:23:41;;;;;;;0.70;0.60;;;10.60;99.90;;;;;;4968941;28;20035;-84
2022/04/20 09:26:12;;;;;;;2.10;0.88;;;10.50;99.90;;;;;;4975045;28;20442;-82
2022/04/20 09:28:40;;;;;;;2.97;0.88;;;10.40;99.90;;;;;;4967462;28;20043;-83
2022/04/20 09:31:07;;;;;;;0.70;0.50;;;10.30;99.90;;;;;;4955025;28;20562;-82
2022/04/20 09:33:44;;;;;;;2.55;0.70;;;10.20;99.90;;;;;;4957418;28;20023;-82
2022/04/20 09:36:13;;;;;;;1.42;0.70;;;10.40;99.90;;;;;;4953481;28;20019;-82
2022/04/20 09:38:41;;;;;;;3.10;0.70;;;10.60;99.90;;;;;;4958965;28;20051;-82
2022/04/20 09:41:10;;;;;;;2.22;0.77;;;10.50;99.90;;;;;;4971812;28;20027;-82
2022/04/20 09:43:39;;;;;;;3.10;0.50;;;10.60;99.90;;;;;;4961724;28;20031;-82
2022/04/20 09:49:24;;;;;;;0.98;0.70;;;10.90;99.90;;;;;;4966589;28;20043;-82
2022/04/20 09:51:49;;;;;;;1.98;0.70;;;11.10;99.90;;;;;;4959494;28;20031;-82
2022/04/20 09:54:28;;;;;;;0.60;0.60;;;11.10;99.90;;;;;;4964455;28;20026;-82
2022/04/20 09:57:11;;;;;;;1.42;0.60;;;11.20;99.90;;;;;;4959639;28;20031;-83
2022/04/20 09:59:38;;;;;;;3.13;0.50;;;11.10;99.90;;;;;;4968304;28;20027;-83
2022/04/20 10:02:12;;;;;;;2.08;0.90;;;11.30;99.90;;;;;;4958717;28;20062;-82
2022/04/20 10:04:42;;;;;;;2.00;0.60;;;11.10;99.90;;;;;;4938188;29;20035;-82
2022/04/20 10:07:08;;;;;;;4.70;0.60;;;11.10;99.90;;;;;;4936934;28;20031;-82
2022/04/20 10:09:33;;;;;;;1.15;0.55;;;11.10;99.90;;;;;;4951826;28;20102;-82
2022/04/20 10:12:00;;;;;;;0.40;0.40;;;11.40;99.90;;;;;;4966438;28;20040;-82
2022/04/20 10:17:16;;;;;;;2.50;0.70;;;11.70;99.90;;;;;;4965939;28;20045;-83
2022/04/20 10:19:42;;;;;;;1.48;0.57;;;11.60;99.90;;;;;;4955453;28;20035;-83
2022/04/20 10:22:08;;;;;;;1.48;0.60;;;11.50;99.90;;;;;;4955690;28;20031;-83
2022/04/20 10:24:40;;;;;;;3.05;0.50;;;11.10;99.90;;;;;;4958222;28;20031;-78
2022/04/20 10:27:15;;;;;;;2.80;0.73;;;11.20;99.90;;;;;;4965441;28;20111;-82
2022/04/20 10:29:51;;;;;;;0.85;0.60;;;11.40;99.90;;;;;;4971936;28;20155;-83
2022/04/20 10:32:25;;;;;;;2.20;0.70;;;11.40;99.90;;;;;;4973891;28;20372;-83
2022/04/20 10:34:53;;;;;;;0.70;0.50;;;11.40;99.90;;;;;;4974804;28;20050;-82
2022/04/20 10:37:25;;;;;;;2.42;0.75;;;11.40;99.90;;;;;;4974846;28;20023;-82
2022/04/20 10:39:53;;;;;;;1.85;0.70;;;11.40;99.90;;;;;;4961704;28;20031;-83
2022/04/20 10:42:20;;;;;;;0.63;0.32;;;11.40;99.90;;;;;;4955668;29;20031;-85
2022/04/20 10:44:55;;;;;;;0.70;0.50;;;11.60;99.90;;;;;;4956997;28;20502;-84
2022/04/20 10:47:28;;;;;;;2.22;0.93;;;11.50;99.90;;;;;;4957584;28;20106;-85
2022/04/20 10:50:09;;;;;;;1.23;0.60;;;11.70;99.90;;;;;;4963810;28;20038;-83
2022/04/20 10:52:36;;;;;;;1.20;0.70;;;11.90;99.90;;;;;;4961304;28;20031;-85
2022/04/20 10:55:04;;;;;;;0.50;0.40;;;12.00;99.90;;;;;;4959735;28;20110;-82
2022/04/20 10:57:38;;;;;;;0.50;0.40;;;11.80;99.90;;;;;;4957826;28;20455;-87
2022/04/20 11:00:21;;;;;;;2.05;0.50;;;11.70;99.90;;;;;;4964101;28;20033;-78
2022/04/20 11:02:55;;;;;;;1.45;0.40;;;11.70;99.90;;;;;;4964454;28;20030;-85
2022/04/20 11:05:22;;;;;;;0.70;0.40;;;11.80;99.90;;;;;;4957553;28;20521;-79
2022/04/20 11:08:06;;;;;;;0.88;0.60;;;11.70;99.90;;;;;;4963093;28;20033;-81
2022/04/20 11:10:34;;;;;;;0.55;0.50;;;11.90;99.90;;;;;;4955749;28;20059;-81
2022/04/20 11:19:06;;;;;;;0.77;0.50;;;11.80;99.90;;;;;;4969120;28;21534;-81
2022/04/20 11:21:33;;;;;;;2.10;0.40;;;11.60;99.90;;;;;;4950439;28;20042;-82
2022/04/20 11:24:09;;;;;;;1.20;0.57;;;11.70;99.90;;;;;;4965411;28;20031;-83
2022/04/20 11:26:48;;;;;;;2.00;0.88;;;11.70;99.90;;;;;;4969087;28;20054;-83
2022/04/20 11:29:15;;;;;;;0.93;0.65;;;11.70;99.90;;;;;;4964684;28;20075;-82
2022/04/20 11:31:43;;;;;;;1.30;0.60;;;11.60;99.90;;;;;;4957067;28;20024;-82
2022/04/20 11:34:10;;;;;;;1.20;0.50;;;11.40;99.90;;;;;;4955623;28;20027;-82
2022/04/20 11:36:44;;;;;;;0.88;0.57;;;11.30;99.90;;;;;;4957392;28;20047;-82
2022/04/20 11:39:11;;;;;;;0.82;0.60;;;11.30;99.90;;;;;;4961468;28;20058;-81
2022/04/20 11:41:37;;;;;;;1.08;0.68;;;11.40;99.90;;;;;;4958915;28;20106;-85
2022/04/20 11:44:18;;;;;;;0.50;0.40;;;11.40;99.90;;;;;;4962801;28;20114;-83
2022/04/20 11:46:44;;;;;;;3.35;0.45;;;11.30;99.90;;;;;;4962292;28;20082;-87
2022/04/20 11:49:10;;;;;;;2.53;0.65;;;11.30;99.90;;;;;;4959391;28;20061;-80
2022/04/20 11:51:37;;;;;;;2.47;0.50;;;11.20;99.90;;;;;;4967549;28;20380;-80
2022/04/20 11:54:03;;;;;;;1.30;0.60;;;11.20;99.90;;;;;;4960535;28;20027;-80
2022/04/20 11:56:37;;;;;;;1.00;0.60;;;11.10;99.90;;;;;;4968307;28;20486;-80
2022/04/20 11:59:06;;;;;;;1.10;0.63;;;11.30;99.90;;;;;;4968341;28;20119;-80
2022/04/20 12:01:36;;;;;;;1.17;0.60;;;11.40;99.90;;;;;;4965817;28;20125;-80
2022/04/20 12:04:22;;;;;;;1.90;1.23;;;11.30;99.90;;;;;;4971218;28;20031;-81
2022/04/20 12:06:53;;;;;;;0.45;0.40;;;11.40;99.90;;;;;;4951589;28;20549;-81
2022/04/20 12:09:31;;;;;;;2.28;0.70;;;11.50;99.90;;;;;;4967329;28;20023;-80
2022/04/20 12:12:00;;;;;;;0.95;0.60;;;11.20;99.90;;;;;;4970197;28;20047;-80
2022/04/20 12:14:34;;;;;;;1.38;0.70;;;11.40;99.90;;;;;;4957929;28;20015;-80
2022/04/20 12:17:05;;;;;;;1.70;0.52;;;11.40;99.90;;;;;;4962179;28;20098;-80
2022/04/20 12:19:35;;;;;;;0.95;0.50;;;11.50;99.90;;;;;;4965221;28;20027;-80
2022/04/20 12:22:11;;;;;;;4.68;1.17;;;11.70;99.90;;;;;;4967645;28;20117;-81
2022/04/20 12:24:40;;;;;;;0.45;0.43;;;11.40;99.90;;;;;;4957868;28;20011;-81
2022/04/20 12:27:20;;;;;;;2.00;0.47;;;11.50;99.90;;;;;;4965528;28;20061;-80
2022/04/20 12:29:57;;;;;;;0.50;0.50;;;11.70;99.90;;;;;;4965743;28;20534;-80
2022/04/20 12:32:31;;;;;;;0.60;0.40;;;11.80;99.90;;;;;;4971567;28;20125;-81
2022/04/20 12:35:01;;;;;;;4.25;0.70;;;11.70;99.90;;;;;;4957876;28;20066;-80
2022/04/20 12:37:31;;;;;;;3.30;0.60;;;11.70;99.90;;;;;;4959751;28;20019;-80
2022/04/20 12:39:58;;;;;;;1.45;0.80;;;11.70;99.90;;;;;;4965165;28;20023;-81
2022/04/20 12:42:24;;;;;;;3.22;0.70;;;11.80;99.90;;;;;;4960378;28;20488;-80
2022/04/20 12:44:51;;;;;;;1.52;0.77;;;11.80;99.90;;;;;;4958543;28;20049;-81
2022/04/20 12:47:18;;;;;;;1.30;1.08;;;11.90;99.90;;;;;;4965219;28;20020;-80
2022/04/20 12:49:44;;;;;;;1.17;0.80;;;11.70;99.90;;;;;;4971037;28;20109;-80
2022/04/20 12:52:10;;;;;;;1.60;0.75;;;11.80;99.90;;;;;;4962069;28;20023;-80
2022/04/20 12:54:36;;;;;;;5.00;0.88;;;11.80;99.90;;;;;;4963436;28;20031;-81
2022/04/20 13:02:57;;;;;;;3.83;1.20;;;11.80;99.90;;;;;;4956560;28;20061;-81
2022/04/20 13:05:24;;;;;;;1.67;1.00;;;11.90;99.90;;;;;;4956032;28;20785;-81
2022/04/20 13:07:50;;;;;;;4.13;1.33;;;11.70;99.90;;;;;;4955456;28;20517;-81
2022/04/20 13:10:16;;;;;;;4.07;2.88;;;11.70;99.90;;;;;;4957652;28;20030;-80
2022/04/20 13:12:50;;;;;;;3.10;1.88;;;11.70;99.90;;;;;;4958623;28;20023;-81
2022/04/20 13:15:16;;;;;;;6.68;4.63;;;11.60;99.90;;;;;;4956779;28;20126;-80
2022/04/20 13:17:42;;;;;;;7.40;5.88;;;11.70;99.90;;;;;;4954424;28;20034;-81
2022/04/20 13:20:08;;;;;;;8.05;6.50;;;11.60;99.90;;;;;;4963228;28;20031;-81
2022/04/20 13:22:34;;;;;;;3.65;1.65;;;11.80;99.90;;;;;;4963503;28;20027;-80
2022/04/20 13:27:55;;;;;;;3.92;0.93;;;11.60;99.90;;;;;;4964386;28;20047;-81
2022/04/20 13:30:35;;;;;;;4.32;1.02;;;11.70;99.90;;;;;;4958860;28;20517;-81
2022/04/20 13:33:12;;;;;;;1.95;0.73;;;11.80;99.90;;;;;;4960150;28;20506;-81
2022/04/20 13:35:39;;;;;;;2.67;1.08;;;11.70;99.90;;;;;;4953586;28;20030;-80
2022/04/20 13:38:07;;;;;;;1.95;1.00;;;11.90;99.90;;;;;;4961712;28;20395;-80
2022/04/20 13:40:36;;;;;;;2.97;1.33;;;11.90;99.90;;;;;;4961676;28;20031;-80